Time;durP1;ratioP1;P1;durP2;ratioP2;P2;SDS_P1;SDS_P2;PMS_P1;PMS_P2;Temp;Humidity;BMP_temperature;BMP_pressure;BME280_temperature;BME280_humidity;BME280_pressure;Samples;Min_cycle;Max_cycle;Signal;HPM_P1;HPM_P2
2023/02/11 00:01:36;;;;;;;0.50;0.50;;;6.20;99.90;;;;;;5046453;28;20060;-82
2023/02/11 00:04:02;;;;;;;;;;;6.30;99.90;;;;;;5046778;28;20037;-83
2023/02/11 00:06:30;;;;;;;0.50;0.50;;;6.30;99.90;;;;;;5048804;28;19921;-83
2023/02/11 00:08:56;;;;;;;0.60;0.60;;;6.40;99.90;;;;;;5051851;28;20450;-83
2023/02/11 00:11:25;;;;;;;1.60;1.35;;;6.30;99.90;;;;;;5051746;28;20087;-83
2023/02/11 00:13:51;;;;;;;0.60;0.60;;;6.30;99.90;;;;;;5050008;28;20029;-84
2023/02/11 00:16:19;;;;;;;0.77;0.77;;;6.30;99.90;;;;;;5033414;28;20072;-84
2023/02/11 00:18:45;;;;;;;1.05;1.05;;;6.40;99.90;;;;;;5050109;28;20064;-83
2023/02/11 00:21:12;;;;;;;;;;;6.50;99.90;;;;;;5029677;28;20076;-83
2023/02/11 00:23:38;;;;;;;0.60;0.60;;;6.40;99.90;;;;;;5042971;28;19928;-83
2023/02/11 00:26:19;;;;;;;0.98;0.98;;;6.40;99.90;;;;;;5051010;28;20045;-82
2023/02/11 00:28:45;;;;;;;0.60;0.60;;;6.40;99.90;;;;;;5051242;28;20037;-84
2023/02/11 00:31:12;;;;;;;0.50;0.50;;;6.40;99.90;;;;;;5051122;28;20072;-84
2023/02/11 00:33:38;;;;;;;0.70;0.70;;;6.40;99.90;;;;;;5048195;28;20343;-85
2023/02/11 00:36:12;;;;;;;1.02;1.02;;;6.40;99.90;;;;;;5052134;28;20047;-83
2023/02/11 00:38:38;;;;;;;0.80;0.80;;;6.40;99.90;;;;;;5051034;28;20052;-84
2023/02/11 00:41:03;;;;;;;4.07;2.78;;;6.40;99.90;;;;;;5051254;28;20413;-83
2023/02/11 00:43:29;;;;;;;1.48;1.38;;;6.40;99.90;;;;;;5015905;28;20045;-84
2023/02/11 00:45:55;;;;;;;4.13;1.50;;;6.40;99.90;;;;;;5034738;28;20049;-84
2023/02/11 00:48:21;;;;;;;10.02;1.80;;;6.40;99.90;;;;;;5049172;28;20051;-83
2023/02/11 00:50:46;;;;;;;3.30;1.40;;;6.50;99.90;;;;;;5045967;28;20843;-85
2023/02/11 00:53:12;;;;;;;0.40;0.40;;;6.50;99.90;;;;;;5031676;28;20064;-83
2023/02/11 00:55:38;;;;;;;0.80;0.80;;;6.50;99.90;;;;;;5028582;28;20037;-84
2023/02/11 00:58:03;;;;;;;0.50;0.50;;;6.50;99.90;;;;;;5053452;28;20057;-84
2023/02/11 01:00:29;;;;;;;2.33;2.22;;;6.50;99.90;;;;;;5042308;28;20041;-83
2023/02/11 01:02:55;;;;;;;0.65;0.65;;;6.60;99.90;;;;;;5024135;28;20081;-86
2023/02/11 01:05:20;;;;;;;1.05;1.05;;;6.50;99.90;;;;;;5038021;28;20048;-84
2023/02/11 01:07:46;;;;;;;0.50;0.50;;;6.50;99.90;;;;;;5029338;28;20121;-84
2023/02/11 01:10:13;;;;;;;0.70;0.70;;;6.50;99.90;;;;;;5050774;28;20041;-84
2023/02/11 01:12:39;;;;;;;;;;;6.50;99.90;;;;;;5050756;28;20053;-83
2023/02/11 01:15:07;;;;;;;0.50;0.50;;;6.50;99.90;;;;;;5049870;28;19923;-83
2023/02/11 01:17:34;;;;;;;0.43;0.43;;;6.40;99.90;;;;;;5047022;28;20041;-83
2023/02/11 01:20:03;;;;;;;1.60;1.50;;;6.40;99.90;;;;;;5033211;28;20086;-83
2023/02/11 01:22:29;;;;;;;1.73;1.67;;;6.40;99.90;;;;;;5050516;28;20441;-83
2023/02/11 01:24:55;;;;;;;0.50;0.50;;;6.40;99.90;;;;;;5049420;28;20044;-83
2023/02/11 01:27:20;;;;;;;0.65;0.65;;;6.40;99.90;;;;;;5043559;28;20036;-83
2023/02/11 01:29:46;;;;;;;0.60;0.60;;;6.40;99.90;;;;;;5050133;28;20060;-85
2023/02/11 01:32:12;;;;;;;0.60;0.60;;;6.50;99.90;;;;;;5050463;28;20040;-84
2023/02/11 01:34:37;;;;;;;1.27;0.95;;;6.40;99.90;;;;;;5050374;28;20051;-83
2023/02/11 01:37:03;;;;;;;1.15;1.15;;;6.40;99.90;;;;;;5030057;28;20046;-85
2023/02/11 01:39:32;;;;;;;2.65;2.55;;;6.40;99.90;;;;;;5014852;28;20042;-86
2023/02/11 01:41:58;;;;;;;0.90;0.90;;;6.40;99.90;;;;;;5040954;28;20049;-85
2023/02/11 01:44:26;;;;;;;1.27;1.08;;;6.40;99.90;;;;;;5051543;28;20179;-84
2023/02/11 01:46:52;;;;;;;0.73;0.73;;;6.40;99.90;;;;;;5050170;28;20076;-83
2023/02/11 01:49:24;;;;;;;3.25;2.90;;;6.40;99.90;;;;;;5029352;28;20151;-83
2023/02/11 01:52:12;;;;;;;0.50;0.50;;;6.40;99.90;;;;;;5070786;28;20045;-84
2023/02/11 01:57:32;;;;;;;2.17;2.08;;;6.30;99.90;;;;;;5054134;28;20057;-84
2023/02/11 02:00:07;;;;;;;0.70;0.70;;;6.30;99.90;;;;;;5040197;28;20722;-85
2023/02/11 02:02:33;;;;;;;0.52;0.52;;;6.30;99.90;;;;;;5033333;28;20128;-84
2023/02/11 02:05:22;;;;;;;0.60;0.60;;;6.20;99.90;;;;;;5030454;28;20137;-84
2023/02/11 02:07:59;;;;;;;1.70;1.63;;;6.30;99.90;;;;;;5031546;28;20124;-84
2023/02/11 02:10:26;;;;;;;1.80;1.33;;;6.20;99.90;;;;;;5048243;28;20707;-83
2023/02/11 02:12:52;;;;;;;1.00;1.00;;;6.20;99.90;;;;;;5049124;28;20045;-86
2023/02/11 02:15:21;;;;;;;0.60;0.60;;;6.20;99.90;;;;;;5050764;28;20037;-84
2023/02/11 02:17:53;;;;;;;0.70;0.70;;;6.30;99.90;;;;;;5051281;28;20045;-84
2023/02/11 02:20:44;;;;;;;0.90;0.90;;;6.30;99.90;;;;;;5042405;28;20132;-85
2023/02/11 02:23:22;;;;;;;1.30;0.90;;;6.20;99.90;;;;;;5045662;28;20083;-83
2023/02/11 02:26:31;;;;;;;0.60;0.60;;;6.20;99.90;;;;;;5053768;28;20726;-85
2023/02/11 02:29:09;;;;;;;0.50;0.50;;;6.20;99.90;;;;;;5045619;28;20102;-83
2023/02/11 02:32:13;;;;;;;0.57;0.57;;;6.20;99.90;;;;;;5052694;28;20044;-83
2023/02/11 02:35:26;;;;;;;0.60;0.60;;;6.10;99.90;;;;;;5053265;28;20040;-82
2023/02/11 02:38:13;;;;;;;0.60;0.60;;;6.20;99.90;;;;;;5049614;28;20063;-84
2023/02/11 02:40:46;;;;;;;0.50;0.50;;;6.10;99.90;;;;;;5047440;28;20052;-83
2023/02/11 02:43:12;;;;;;;0.80;0.80;;;6.10;99.90;;;;;;5043535;28;20051;-84
2023/02/11 02:45:38;;;;;;;0.93;0.88;;;6.10;99.90;;;;;;5037098;28;20040;-84
2023/02/11 02:48:04;;;;;;;0.80;0.80;;;6.20;99.90;;;;;;5052307;28;20490;-83
2023/02/11 02:50:33;;;;;;;0.70;0.70;;;6.20;99.90;;;;;;5037460;28;20045;-85
2023/02/11 02:53:30;;;;;;;3.30;0.82;;;6.20;99.90;;;;;;5044595;28;20038;-83
2023/02/11 02:56:17;;;;;;;0.80;0.80;;;6.20;99.90;;;;;;5033301;28;20057;-84
2023/02/11 02:59:02;;;;;;;2.35;0.90;;;6.20;99.90;;;;;;5021486;28;20183;-84
2023/02/11 03:01:41;;;;;;;0.70;0.70;;;6.20;99.90;;;;;;5052376;28;20049;-83
2023/02/11 03:04:06;;;;;;;1.00;1.00;;;6.20;99.90;;;;;;5033266;28;20478;-83
2023/02/11 03:06:41;;;;;;;0.70;0.70;;;6.20;99.90;;;;;;5034229;28;20053;-83
2023/02/11 03:09:15;;;;;;;1.70;1.15;;;6.20;99.90;;;;;;5039726;28;20057;-82
2023/02/11 03:11:41;;;;;;;0.60;0.60;;;6.30;99.90;;;;;;5049977;28;20056;-83
2023/02/11 03:14:11;;;;;;;0.65;0.65;;;6.20;99.90;;;;;;5033779;28;20391;-82
2023/02/11 03:16:38;;;;;;;0.70;0.70;;;6.30;99.90;;;;;;5016964;28;20135;-83
2023/02/11 03:19:16;;;;;;;1.30;1.27;;;6.30;99.90;;;;;;5046668;28;20040;-83
2023/02/11 03:21:43;;;;;;;0.47;0.47;;;6.30;99.90;;;;;;5048802;28;20076;-82
2023/02/11 03:24:20;;;;;;;0.60;0.60;;;6.30;99.90;;;;;;5041560;28;20051;-81
2023/02/11 03:26:50;;;;;;;2.65;2.45;;;6.30;99.90;;;;;;5059435;28;20080;-82
2023/02/11 03:29:56;;;;;;;0.70;0.70;;;6.30;99.90;;;;;;5051548;28;20053;-82
2023/02/11 03:32:40;;;;;;;3.17;1.65;;;6.30;99.90;;;;;;5033011;28;20049;-83
2023/02/11 03:35:14;;;;;;;0.68;0.68;;;6.30;99.90;;;;;;5057591;28;20435;-84
2023/02/11 03:37:52;;;;;;;0.50;0.50;;;6.40;99.90;;;;;;5054607;28;20037;-83
2023/02/11 03:40:22;;;;;;;0.60;0.60;;;6.40;99.90;;;;;;5068581;28;20045;-83
2023/02/11 03:43:03;;;;;;;0.90;0.90;;;6.40;99.90;;;;;;5062572;28;20100;-84
2023/02/11 03:45:29;;;;;;;4.20;1.17;;;6.40;99.90;;;;;;5046853;28;20465;-83
2023/02/11 03:48:04;;;;;;;0.68;0.68;;;6.40;99.90;;;;;;5040694;28;20048;-84
2023/02/11 03:50:32;;;;;;;2.78;2.58;;;6.60;99.90;;;;;;5060098;28;20097;-85
2023/02/11 03:53:00;;;;;;;1.75;1.67;;;6.50;99.90;;;;;;5046888;28;20045;-84
2023/02/11 03:55:28;;;;;;;0.50;0.50;;;6.50;99.90;;;;;;5032951;28;20045;-85
2023/02/11 03:57:54;;;;;;;0.65;0.65;;;6.50;99.90;;;;;;5033350;28;20069;-84
2023/02/11 04:00:20;;;;;;;;;;;6.50;99.90;;;;;;5052517;28;20045;-85
2023/02/11 04:02:46;;;;;;;0.43;0.43;;;6.60;99.90;;;;;;5018314;28;19920;-85
2023/02/11 04:05:14;;;;;;;1.25;1.20;;;6.60;99.90;;;;;;5035375;28;20045;-83
2023/02/11 04:07:40;;;;;;;1.35;1.35;;;6.50;99.90;;;;;;5053080;28;20039;-85
2023/02/11 04:10:06;;;;;;;2.67;1.05;;;6.50;99.90;;;;;;5034704;28;20040;-85
2023/02/11 04:12:32;;;;;;;0.82;0.82;;;6.60;99.90;;;;;;5045401;28;20039;-85
2023/02/11 04:14:57;;;;;;;2.45;1.17;;;6.60;99.90;;;;;;5035492;28;20046;-83
2023/02/11 04:17:23;;;;;;;1.98;1.90;;;6.60;99.90;;;;;;5051386;28;20564;-83
2023/02/11 04:19:49;;;;;;;1.90;1.80;;;6.70;99.90;;;;;;5051352;28;20127;-83
2023/02/11 04:22:15;;;;;;;0.70;0.70;;;6.70;99.90;;;;;;5033951;28;20051;-84
2023/02/11 04:24:42;;;;;;;0.63;0.63;;;6.70;99.90;;;;;;5051677;28;20470;-84
2023/02/11 04:27:08;;;;;;;2.05;1.90;;;6.80;99.90;;;;;;5035554;28;20057;-85
2023/02/11 04:29:34;;;;;;;1.95;1.48;;;6.70;99.90;;;;;;5052099;28;20091;-85
2023/02/11 04:32:00;;;;;;;1.27;1.17;;;6.80;99.90;;;;;;5030067;28;20032;-85
2023/02/11 04:34:25;;;;;;;1.92;1.83;;;6.80;99.90;;;;;;5033350;28;20080;-85
2023/02/11 04:36:51;;;;;;;2.22;2.13;;;6.80;99.90;;;;;;5019026;28;20359;-84
2023/02/11 04:39:17;;;;;;;1.05;1.05;;;6.80;99.90;;;;;;5019207;28;20048;-85
2023/02/11 04:41:43;;;;;;;1.42;1.33;;;6.90;99.90;;;;;;5052307;28;20045;-85
2023/02/11 04:44:09;;;;;;;0.95;0.95;;;6.90;99.90;;;;;;5030496;28;20382;-84
2023/02/11 04:46:35;;;;;;;1.55;1.45;;;6.90;99.90;;;;;;5049561;28;20053;-84
2023/02/11 04:49:01;;;;;;;0.90;0.90;;;6.90;99.90;;;;;;5052580;28;20048;-84
2023/02/11 04:51:27;;;;;;;1.17;1.15;;;6.90;99.90;;;;;;5051896;28;20041;-84
2023/02/11 04:53:52;;;;;;;0.80;0.73;;;6.90;99.90;;;;;;5050203;28;20120;-84
2023/02/11 04:56:18;;;;;;;2.40;1.48;;;7.20;99.90;;;;;;5053208;28;20119;-84
2023/02/11 04:58:44;;;;;;;0.90;0.90;;;6.90;99.90;;;;;;5066759;28;20061;-87
2023/02/11 05:01:12;;;;;;;6.10;1.50;;;6.90;99.90;;;;;;5051890;28;20056;-86
2023/02/11 05:03:38;;;;;;;3.92;2.20;;;6.90;99.90;;;;;;5039928;28;20481;-84
2023/02/11 05:06:04;;;;;;;1.52;1.45;;;7.00;99.90;;;;;;5048878;28;20045;-84
2023/02/11 05:08:30;;;;;;;1.38;0.80;;;6.90;99.90;;;;;;5035154;28;20045;-84
2023/02/11 05:10:56;;;;;;;0.77;0.77;;;6.90;99.90;;;;;;5033582;28;20424;-84
2023/02/11 05:13:22;;;;;;;0.57;0.57;;;6.90;99.90;;;;;;5049825;28;20381;-84
2023/02/11 05:15:47;;;;;;;3.00;2.65;;;7.10;99.90;;;;;;5034585;28;20045;-85
2023/02/11 05:18:13;;;;;;;1.00;1.00;;;7.00;99.90;;;;;;5031846;28;20038;-84
2023/02/11 05:20:43;;;;;;;1.77;1.67;;;7.00;99.90;;;;;;5019706;28;20045;-85
2023/02/11 05:23:09;;;;;;;1.05;0.90;;;7.00;99.90;;;;;;5014875;28;20042;-85
2023/02/11 05:25:35;;;;;;;2.67;1.17;;;7.00;99.90;;;;;;5042590;28;20041;-85
2023/02/11 05:28:01;;;;;;;;;;;7.00;99.90;;;;;;5023341;28;20052;-85
2023/02/11 05:30:27;;;;;;;2.92;1.48;;;7.00;99.90;;;;;;5031596;28;19921;-84
2023/02/11 05:32:52;;;;;;;0.98;0.80;;;7.00;99.90;;;;;;5031111;28;20132;-85
2023/02/11 05:35:18;;;;;;;0.85;0.82;;;7.00;99.90;;;;;;5021605;28;20179;-84
2023/02/11 05:37:44;;;;;;;0.50;0.50;;;6.90;99.90;;;;;;5034798;28;20497;-83
2023/02/11 05:40:10;;;;;;;0.40;0.40;;;6.80;99.90;;;;;;5049675;28;20056;-84
2023/02/11 05:42:36;;;;;;;1.48;1.38;;;6.80;99.90;;;;;;5035082;28;20125;-83
2023/02/11 05:45:02;;;;;;;0.80;0.80;;;6.80;99.90;;;;;;5027932;28;20075;-83
2023/02/11 05:47:31;;;;;;;5.28;3.40;;;6.80;99.90;;;;;;5046205;28;20128;-83
2023/02/11 05:49:57;;;;;;;0.68;0.68;;;6.80;99.90;;;;;;5036504;28;20173;-84
2023/02/11 05:52:22;;;;;;;1.50;1.40;;;6.80;99.90;;;;;;5073048;28;20036;-85
2023/02/11 05:54:48;;;;;;;0.65;0.65;;;6.80;99.90;;;;;;5058329;28;20048;-83
2023/02/11 05:57:15;;;;;;;5.68;1.30;;;6.80;99.90;;;;;;5048927;28;20127;-85
2023/02/11 05:59:41;;;;;;;4.78;2.08;;;6.80;99.90;;;;;;5052960;28;20114;-84
2023/02/11 06:02:07;;;;;;;;;;;6.80;99.90;;;;;;5058717;28;20052;-83
2023/02/11 06:04:34;;;;;;;2.28;1.20;;;6.90;99.90;;;;;;5038358;28;20374;-84
2023/02/11 06:06:59;;;;;;;1.58;1.58;;;6.90;99.90;;;;;;5026019;28;20096;-83
2023/02/11 06:09:26;;;;;;;0.93;0.93;;;6.90;99.90;;;;;;5054790;28;20536;-83
2023/02/11 06:11:51;;;;;;;;;;;6.90;99.90;;;;;;5054552;28;20128;-84
2023/02/11 06:14:17;;;;;;;0.90;0.90;;;6.90;99.90;;;;;;5054974;28;20373;-83
2023/02/11 06:16:43;;;;;;;1.52;1.45;;;7.00;99.90;;;;;;5052825;28;20045;-83
2023/02/11 06:19:09;;;;;;;1.13;1.13;;;6.90;99.90;;;;;;5055107;28;20041;-84
2023/02/11 06:21:35;;;;;;;;;;;6.90;99.90;;;;;;5053352;28;20067;-83
2023/02/11 06:24:00;;;;;;;0.50;0.50;;;7.00;99.90;;;;;;5053997;28;20366;-82
2023/02/11 06:26:26;;;;;;;0.50;0.50;;;6.90;99.90;;;;;;5052227;28;20048;-84
2023/02/11 06:28:52;;;;;;;0.52;0.52;;;7.00;99.90;;;;;;5037434;28;20123;-84
2023/02/11 06:31:18;;;;;;;1.25;1.25;;;7.00;99.90;;;;;;5037375;28;20041;-83
2023/02/11 06:33:43;;;;;;;0.88;0.88;;;7.00;99.90;;;;;;5054619;28;20479;-83
2023/02/11 06:36:15;;;;;;;1.60;1.52;;;7.00;99.90;;;;;;5056522;28;20076;-84
2023/02/11 06:38:41;;;;;;;1.13;1.13;;;7.00;99.90;;;;;;5052350;28;20515;-85
2023/02/11 06:41:12;;;;;;;0.65;0.65;;;7.00;99.90;;;;;;5053621;28;20136;-83
2023/02/11 06:43:38;;;;;;;0.65;0.65;;;7.00;99.90;;;;;;5054790;28;20059;-84
2023/02/11 06:46:04;;;;;;;1.38;1.35;;;7.00;99.90;;;;;;5072640;28;20044;-84
2023/02/11 06:48:30;;;;;;;6.45;3.78;;;7.00;99.90;;;;;;5049854;28;20052;-85
2023/02/11 06:50:56;;;;;;;0.70;0.70;;;7.00;99.90;;;;;;5055888;28;20486;-86
2023/02/11 06:53:21;;;;;;;1.08;1.08;;;7.10;99.90;;;;;;5037815;28;20082;-85
2023/02/11 06:55:47;;;;;;;0.70;0.70;;;7.10;99.90;;;;;;5057367;28;20128;-84
2023/02/11 06:58:13;;;;;;;0.50;0.50;;;7.10;99.90;;;;;;5031666;28;20061;-84
2023/02/11 07:00:39;;;;;;;2.08;1.23;;;7.00;99.90;;;;;;5036674;28;20085;-84
2023/02/11 07:03:05;;;;;;;2.45;0.65;;;7.10;99.90;;;;;;5052005;28;20053;-83
2023/02/11 07:05:33;;;;;;;0.55;0.55;;;7.10;99.90;;;;;;5047105;28;20045;-84
2023/02/11 07:07:58;;;;;;;0.73;0.68;;;7.10;99.90;;;;;;5000017;28;20053;-83
2023/02/11 07:10:24;;;;;;;0.60;0.60;;;7.10;99.90;;;;;;5050826;28;20041;-85
2023/02/11 07:12:50;;;;;;;0.73;0.73;;;7.20;99.90;;;;;;5035611;28;20132;-83
2023/02/11 07:15:15;;;;;;;1.35;1.25;;;7.10;99.90;;;;;;5052865;28;20040;-83
2023/02/11 07:17:41;;;;;;;1.40;1.30;;;7.10;99.90;;;;;;5036670;28;20395;-84
2023/02/11 07:20:08;;;;;;;0.93;0.93;;;7.10;99.90;;;;;;5040766;28;20519;-84
2023/02/11 07:22:34;;;;;;;1.45;1.35;;;7.20;99.90;;;;;;5046869;28;20102;-83
2023/02/11 07:24:59;;;;;;;0.50;0.50;;;7.10;99.90;;;;;;5037422;28;20111;-84
2023/02/11 07:27:25;;;;;;;0.60;0.60;;;7.20;99.90;;;;;;5035021;28;20081;-84
2023/02/11 07:29:51;;;;;;;1.13;1.13;;;7.20;99.90;;;;;;5052403;28;20047;-83
2023/02/11 07:32:16;;;;;;;0.98;0.98;;;7.20;99.90;;;;;;5049182;28;20037;-83
2023/02/11 07:34:42;;;;;;;1.63;1.55;;;7.30;99.90;;;;;;5053376;28;20045;-83
2023/02/11 07:37:08;;;;;;;1.25;1.23;;;7.30;99.90;;;;;;5052595;28;20056;-83
2023/02/11 07:39:33;;;;;;;0.77;0.77;;;7.30;99.90;;;;;;5035484;28;20047;-83
2023/02/11 07:41:59;;;;;;;1.65;1.55;;;7.30;99.90;;;;;;5046358;28;20045;-82
2023/02/11 07:44:25;;;;;;;0.70;0.70;;;7.40;99.90;;;;;;5038676;28;20092;-83
2023/02/11 07:46:50;;;;;;;0.98;0.98;;;7.40;99.90;;;;;;5032587;28;20051;-84
2023/02/11 07:49:16;;;;;;;0.80;0.80;;;7.40;99.90;;;;;;5041586;28;20037;-84
2023/02/11 07:51:42;;;;;;;2.60;2.47;;;7.50;99.90;;;;;;5041542;28;20525;-85
2023/02/11 07:54:10;;;;;;;1.90;1.80;;;7.40;99.90;;;;;;5009920;28;20047;-85
2023/02/11 07:56:35;;;;;;;0.60;0.60;;;7.50;99.90;;;;;;5051077;28;20055;-87
2023/02/11 07:59:02;;;;;;;0.70;0.70;;;7.50;99.90;;;;;;5048444;28;20057;-84
2023/02/11 08:01:29;;;;;;;0.85;0.85;;;7.50;99.90;;;;;;5043693;28;20140;-84
2023/02/11 08:03:56;;;;;;;2.30;2.17;;;7.60;99.90;;;;;;5040606;28;20085;-84
2023/02/11 08:06:23;;;;;;;0.63;0.63;;;7.70;99.90;;;;;;5033043;28;20039;-84
2023/02/11 08:08:49;;;;;;;0.75;0.73;;;7.70;99.90;;;;;;5050697;28;20397;-86
2023/02/11 08:11:16;;;;;;;;;;;7.80;99.90;;;;;;5051796;28;20390;-86
2023/02/11 08:13:43;;;;;;;0.60;0.60;;;7.80;99.90;;;;;;5051529;28;19960;-84
2023/02/11 08:16:16;;;;;;;1.27;1.25;;;7.80;99.90;;;;;;5050447;28;20083;-86
2023/02/11 08:18:42;;;;;;;1.95;0.98;;;7.80;99.90;;;;;;5041539;28;20076;-80
2023/02/11 08:21:09;;;;;;;0.57;0.57;;;7.80;99.90;;;;;;5053164;28;20041;-84
2023/02/11 08:23:39;;;;;;;1.52;1.42;;;7.90;99.90;;;;;;5049844;28;20045;-85
2023/02/11 08:26:08;;;;;;;0.70;0.70;;;7.90;99.90;;;;;;5029852;28;20029;-84
2023/02/11 08:28:42;;;;;;;0.45;0.45;;;7.90;99.90;;;;;;5040126;28;20060;-85
2023/02/11 08:31:15;;;;;;;0.57;0.57;;;8.00;99.90;;;;;;5052781;28;20045;-85
2023/02/11 08:33:41;;;;;;;0.50;0.50;;;8.00;99.90;;;;;;5044253;28;20043;-86
2023/02/11 08:36:12;;;;;;;0.70;0.70;;;8.00;99.90;;;;;;5052486;28;20127;-89
2023/02/11 08:38:38;;;;;;;0.40;0.40;;;8.10;99.90;;;;;;5053667;28;20091;-88
2023/02/11 08:41:04;;;;;;;1.00;0.75;;;8.10;99.90;;;;;;5052572;28;20386;-83
2023/02/11 08:43:31;;;;;;;0.80;0.80;;;8.10;99.90;;;;;;5049972;28;20352;-84
2023/02/11 08:45:57;;;;;;;0.35;0.35;;;7.80;99.90;;;;;;5036935;28;20048;-85
2023/02/11 08:48:23;;;;;;;0.50;0.50;;;8.10;99.90;;;;;;5036533;28;20041;-87
2023/02/11 08:50:49;;;;;;;0.98;0.98;;;8.10;99.90;;;;;;5019343;28;20124;-84
2023/02/11 08:53:14;;;;;;;1.55;0.55;;;8.10;99.90;;;;;;5004213;28;20052;-86
2023/02/11 08:55:46;;;;;;;0.60;0.60;;;8.10;99.90;;;;;;5038472;28;20118;-85
2023/02/11 08:58:12;;;;;;;0.90;0.65;;;8.10;99.90;;;;;;5034523;28;20486;-84
2023/02/11 09:00:38;;;;;;;0.90;0.90;;;8.10;99.90;;;;;;5050275;28;20057;-86
2023/02/11 09:03:03;;;;;;;0.45;0.45;;;8.10;99.90;;;;;;5041057;28;20052;-86
2023/02/11 09:05:29;;;;;;;3.65;1.63;;;8.10;99.90;;;;;;5037582;28;20049;-84
2023/02/11 09:07:55;;;;;;;1.00;1.00;;;8.20;99.90;;;;;;5060370;28;20086;-85
2023/02/11 09:10:20;;;;;;;0.60;0.60;;;8.20;99.90;;;;;;5036552;28;20044;-85
2023/02/11 09:12:46;;;;;;;0.95;0.95;;;8.20;99.90;;;;;;5055579;28;20056;-87
2023/02/11 09:15:12;;;;;;;2.00;1.90;;;8.20;99.90;;;;;;5022284;28;20033;-85
2023/02/11 09:17:37;;;;;;;2.83;1.15;;;8.20;99.90;;;;;;5004372;28;20039;-85
2023/02/11 09:20:04;;;;;;;0.63;0.60;;;8.20;99.90;;;;;;5038780;28;20036;-85
2023/02/11 09:22:29;;;;;;;;;;;8.30;99.90;;;;;;5021331;28;20773;-85
2023/02/11 09:24:55;;;;;;;1.25;1.20;;;8.30;99.90;;;;;;5031531;28;19964;-85
2023/02/11 09:27:21;;;;;;;1.63;1.42;;;8.40;99.90;;;;;;5026061;28;20049;-85
2023/02/11 09:29:46;;;;;;;0.80;0.80;;;8.30;99.90;;;;;;5053844;28;20033;-85
2023/02/11 09:32:12;;;;;;;0.85;0.85;;;8.50;99.90;;;;;;5032708;28;20029;-86
2023/02/11 09:34:38;;;;;;;1.17;1.02;;;8.50;99.90;;;;;;5015846;28;20098;-85
2023/02/11 09:37:03;;;;;;;0.40;0.40;;;8.60;99.90;;;;;;5034204;28;20124;-85
2023/02/11 09:39:29;;;;;;;1.25;1.17;;;8.60;99.90;;;;;;5054351;28;20058;-85
2023/02/11 09:42:09;;;;;;;1.70;1.65;;;8.70;99.90;;;;;;5048795;28;20474;-85
2023/02/11 09:44:36;;;;;;;0.60;0.60;;;8.70;99.90;;;;;;5046552;28;20079;-85
2023/02/11 09:47:26;;;;;;;0.70;0.70;;;8.80;99.90;;;;;;5034646;28;20056;-85
2023/02/11 09:50:14;;;;;;;3.40;1.48;;;8.80;99.90;;;;;;5022461;28;20052;-85
2023/02/11 09:53:29;;;;;;;0.50;0.50;;;8.90;99.90;;;;;;5044436;28;20117;-85
2023/02/11 09:55:58;;;;;;;0.50;0.50;;;8.90;99.90;;;;;;4994110;28;20042;-85
2023/02/11 09:58:39;;;;;;;0.73;0.73;;;8.90;99.90;;;;;;4993477;28;20121;-85
2023/02/11 10:01:43;;;;;;;0.60;0.60;;;9.00;99.90;;;;;;5027938;28;20056;-85
2023/02/11 10:04:11;;;;;;;0.70;0.70;;;9.00;99.90;;;;;;5053657;28;20036;-85
2023/02/11 10:06:52;;;;;;;0.60;0.60;;;9.10;99.90;;;;;;5045685;28;20037;-85
2023/02/11 10:09:33;;;;;;;0.50;0.50;;;9.10;99.90;;;;;;5043045;28;20029;-86
2023/02/11 10:12:40;;;;;;;0.50;0.50;;;9.10;99.90;;;;;;5050105;28;20036;-85
2023/02/11 10:15:08;;;;;;;0.70;0.70;;;9.10;99.90;;;;;;5033370;28;20037;-85
2023/02/11 10:17:34;;;;;;;0.50;0.50;;;9.10;99.90;;;;;;5050594;28;20073;-85
2023/02/11 10:20:12;;;;;;;0.77;0.77;;;9.20;99.90;;;;;;5051694;28;20048;-85
2023/02/11 10:22:45;;;;;;;3.40;3.10;;;9.20;99.90;;;;;;5031890;28;20440;-85
2023/02/11 10:25:17;;;;;;;0.75;0.75;;;9.20;99.90;;;;;;5026659;28;20044;-84
2023/02/11 10:27:42;;;;;;;0.50;0.50;;;9.20;99.90;;;;;;5047016;28;20068;-85
2023/02/11 10:30:25;;;;;;;1.48;1.38;;;9.30;99.90;;;;;;5031626;28;20037;-85
2023/02/11 10:32:57;;;;;;;4.22;1.80;;;9.30;99.90;;;;;;5033583;28;20040;-84
2023/02/11 10:35:23;;;;;;;0.70;0.70;;;9.30;99.90;;;;;;5048649;28;20056;-85
2023/02/11 10:37:49;;;;;;;0.73;0.73;;;9.40;99.90;;;;;;5049709;28;20036;-85
2023/02/11 10:40:22;;;;;;;0.40;0.40;;;9.40;99.90;;;;;;5053352;28;20033;-86
2023/02/11 10:42:51;;;;;;;0.93;0.93;;;9.40;99.90;;;;;;5052813;28;20065;-85
2023/02/11 10:45:39;;;;;;;0.70;0.70;;;9.40;99.90;;;;;;5051586;28;20425;-85
2023/02/11 10:48:26;;;;;;;0.63;0.63;;;9.50;99.90;;;;;;5053276;28;20045;-86
2023/02/11 10:51:12;;;;;;;0.40;0.40;;;9.50;99.90;;;;;;5048688;28;20084;-87
2023/02/11 10:53:38;;;;;;;0.40;0.40;;;9.60;99.90;;;;;;5053418;28;20036;-84
2023/02/11 10:56:06;;;;;;;0.85;0.70;;;9.60;99.90;;;;;;5047637;28;20051;-84
2023/02/11 10:58:53;;;;;;;0.40;0.40;;;9.60;99.90;;;;;;5049710;28;20152;-84
2023/02/11 11:01:19;;;;;;;0.40;0.40;;;9.60;99.90;;;;;;5049729;28;20057;-84
2023/02/11 11:03:49;;;;;;;1.52;1.52;;;9.70;99.90;;;;;;5036437;28;20083;-85
2023/02/11 11:06:15;;;;;;;0.57;0.57;;;9.70;99.90;;;;;;5052662;28;20470;-84
2023/02/11 11:08:50;;;;;;;0.60;0.60;;;9.60;99.90;;;;;;5048554;28;20033;-83
2023/02/11 11:11:21;;;;;;;3.97;0.70;;;9.60;99.90;;;;;;5031494;28;20032;-84
2023/02/11 11:13:53;;;;;;;0.95;0.75;;;9.60;99.90;;;;;;5041434;28;20050;-84
2023/02/11 11:16:23;;;;;;;0.50;0.50;;;9.60;99.90;;;;;;5049109;28;20045;-83
2023/02/11 11:18:51;;;;;;;0.50;0.50;;;10.00;99.90;;;;;;5057519;28;20036;-84
2023/02/11 11:21:29;;;;;;;0.63;0.63;;;9.60;99.90;;;;;;5041876;28;20479;-84
2023/02/11 11:24:01;;;;;;;0.47;0.47;;;9.50;99.90;;;;;;5024837;28;20051;-84
2023/02/11 11:26:39;;;;;;;1.27;1.25;;;9.60;99.90;;;;;;5048030;28;20053;-85
2023/02/11 11:29:36;;;;;;;0.38;0.38;;;9.60;99.90;;;;;;5036172;28;20054;-85
2023/02/11 11:32:10;;;;;;;0.53;0.53;;;9.60;99.90;;;;;;5041350;28;20051;-85
2023/02/11 11:34:47;;;;;;;0.40;0.40;;;9.70;99.90;;;;;;5049331;28;20776;-84
2023/02/11 11:37:23;;;;;;;0.85;0.85;;;9.80;99.90;;;;;;5051955;28;20463;-85
2023/02/11 11:39:59;;;;;;;0.40;0.40;;;9.80;99.90;;;;;;5054846;28;20095;-86
2023/02/11 11:42:31;;;;;;;1.85;0.63;;;9.90;99.90;;;;;;5054617;28;20067;-84
2023/02/11 11:45:03;;;;;;;0.40;0.40;;;9.90;99.90;;;;;;5049221;28;20048;-84
2023/02/11 11:47:38;;;;;;;0.75;0.75;;;9.90;99.90;;;;;;5051742;28;20379;-84
2023/02/11 11:50:27;;;;;;;0.50;0.50;;;9.90;99.90;;;;;;5048044;28;20111;-83
2023/02/11 11:53:03;;;;;;;0.30;0.30;;;9.90;99.90;;;;;;5030150;28;20045;-84
2023/02/11 11:55:43;;;;;;;0.50;0.50;;;9.90;99.90;;;;;;5052208;28;20043;-84
2023/02/11 11:58:15;;;;;;;0.50;0.50;;;10.00;99.90;;;;;;5049306;28;20467;-84
2023/02/11 12:01:03;;;;;;;0.50;0.50;;;10.10;99.90;;;;;;5051393;28;20123;-84
2023/02/11 12:03:31;;;;;;;1.73;1.63;;;10.10;99.90;;;;;;5050995;28;20048;-84
2023/02/11 12:06:12;;;;;;;1.17;1.17;;;10.20;99.90;;;;;;5051963;28;20123;-85
2023/02/11 12:08:52;;;;;;;0.50;0.50;;;10.20;99.90;;;;;;5043863;28;20082;-84
2023/02/11 12:11:24;;;;;;;1.65;1.35;;;10.20;99.90;;;;;;5048514;28;20044;-84
2023/02/11 12:14:12;;;;;;;0.43;0.43;;;10.20;99.90;;;;;;5033771;28;20037;-84
2023/02/11 12:17:03;;;;;;;1.67;1.58;;;10.30;99.90;;;;;;5035104;28;20158;-84
2023/02/11 12:20:11;;;;;;;0.60;0.60;;;10.30;99.90;;;;;;5046937;28;20052;-84
2023/02/11 12:23:01;;;;;;;0.95;0.95;;;10.40;99.90;;;;;;5046450;28;20044;-84
2023/02/11 12:25:40;;;;;;;1.50;1.40;;;10.40;99.90;;;;;;5040113;28;20670;-84
2023/02/11 12:28:12;;;;;;;0.30;0.30;;;10.40;99.90;;;;;;5030869;28;20127;-84
2023/02/11 12:30:41;;;;;;;0.40;0.40;;;10.40;99.90;;;;;;5055244;28;20074;-84
2023/02/11 12:33:34;;;;;;;2.13;1.98;;;10.40;99.90;;;;;;5051485;28;20060;-84
2023/02/11 12:36:03;;;;;;;2.85;0.70;;;10.50;99.90;;;;;;5051497;28;20041;-84
2023/02/11 12:38:46;;;;;;;0.50;0.50;;;10.50;99.90;;;;;;5047934;28;20045;-84
2023/02/11 12:44:48;;;;;;;0.40;0.40;;;10.40;99.90;;;;;;5045556;28;20048;-84
2023/02/11 12:47:14;;;;;;;0.43;0.43;;;10.40;99.90;;;;;;5039590;28;20049;-84
2023/02/11 12:49:51;;;;;;;0.40;0.40;;;10.40;99.90;;;;;;5036698;28;20052;-84
2023/02/11 12:52:42;;;;;;;0.40;0.40;;;10.40;99.90;;;;;;5040112;28;20041;-84
2023/02/11 12:55:31;;;;;;;0.50;0.50;;;10.30;99.90;;;;;;5043441;28;20067;-83
2023/02/11 12:57:59;;;;;;;0.50;0.50;;;10.30;99.90;;;;;;5050102;28;20044;-84
2023/02/11 13:00:44;;;;;;;0.40;0.40;;;10.30;99.90;;;;;;5028482;28;20132;-84
2023/02/11 13:03:30;;;;;;;0.40;0.40;;;10.30;99.90;;;;;;5044473;28;20060;-84
2023/02/11 13:06:01;;;;;;;0.52;0.52;;;10.20;99.90;;;;;;5047415;28;20786;-84
2023/02/11 13:08:37;;;;;;;0.38;0.38;;;10.00;99.90;;;;;;5041253;28;20090;-83
2023/02/11 13:11:14;;;;;;;0.73;0.65;;;9.90;99.90;;;;;;5042051;28;20413;-84
2023/02/11 13:14:21;;;;;;;0.40;0.40;;;10.00;99.90;;;;;;5030799;28;20181;-84
2023/02/11 13:16:49;;;;;;;0.40;0.40;;;9.80;99.90;;;;;;5032689;28;20064;-84
2023/02/11 13:19:36;;;;;;;1.77;0.90;;;9.80;99.90;;;;;;5033885;28;20038;-84
2023/02/11 13:22:34;;;;;;;0.98;0.98;;;9.80;99.90;;;;;;5047603;28;20033;-84
2023/02/11 13:25:35;;;;;;;0.40;0.40;;;9.70;99.90;;;;;;5048052;28;20044;-84